Time;durP1;ratioP1;P1;durP2;ratioP2;P2;SDS_P1;SDS_P2;PMS_P1;PMS_P2;Temp;Humidity;BMP_temperature;BMP_pressure;BME280_temperature;BME280_humidity;BME280_pressure;Samples;Min_cycle;Max_cycle;Signal;HPM_P1;HPM_P2
2022/11/02 00:01:23;;;;;;;1.63;0.80;;;18.30;41.80;;;;;;4058853;29;20492;-47
2022/11/02 00:03:45;;;;;;;2.08;0.68;;;18.30;41.80;;;;;;4050588;29;20127;-47
2022/11/02 00:06:08;;;;;;;1.23;0.70;;;18.30;41.90;;;;;;4056317;29;20040;-47
2022/11/02 00:08:31;;;;;;;1.80;0.80;;;18.30;41.90;;;;;;4056820;29;20051;-52
2022/11/02 00:10:53;;;;;;;0.90;0.60;;;18.30;41.90;;;;;;4057363;29;20062;-49
2022/11/02 00:13:15;;;;;;;1.85;0.68;;;18.30;41.90;;;;;;4057868;29;20051;-46
2022/11/02 00:15:38;;;;;;;2.22;0.85;;;18.30;41.90;;;;;;4054142;29;20098;-51
2022/11/02 00:18:05;;;;;;;2.08;0.75;;;18.30;41.80;;;;;;4058601;29;20044;-49
2022/11/02 00:20:28;;;;;;;0.75;0.50;;;18.30;41.80;;;;;;4057195;29;20055;-46
2022/11/02 00:22:55;;;;;;;1.92;0.70;;;18.30;41.90;;;;;;4052138;29;20063;-47
2022/11/02 00:25:21;;;;;;;1.05;0.80;;;18.40;41.90;;;;;;4056787;29;20408;-50
2022/11/02 00:27:43;;;;;;;3.17;0.85;;;18.40;42.00;;;;;;4055697;29;20160;-46
2022/11/02 00:30:07;;;;;;;1.73;0.70;;;18.40;42.00;;;;;;4056582;29;20051;-47
2022/11/02 00:32:29;;;;;;;0.85;0.60;;;18.30;41.90;;;;;;4051075;29;20036;-47
2022/11/02 00:34:52;;;;;;;2.47;0.90;;;18.30;42.00;;;;;;4055729;29;20570;-50
2022/11/02 00:37:14;;;;;;;1.25;0.70;;;18.40;42.20;;;;;;4055736;29;20106;-47
2022/11/02 00:39:37;;;;;;;1.33;0.60;;;18.30;42.20;;;;;;4056909;29;20140;-50
2022/11/02 00:42:00;;;;;;;0.70;0.60;;;18.30;42.30;;;;;;4056363;29;20058;-47
2022/11/02 00:44:22;;;;;;;1.50;1.02;;;18.40;42.40;;;;;;4053819;29;20479;-47
2022/11/02 00:46:45;;;;;;;2.88;0.70;;;18.40;42.40;;;;;;4054160;29;20044;-49
2022/11/02 00:49:07;;;;;;;0.85;0.43;;;18.40;42.50;;;;;;4053594;29;20142;-47
2022/11/02 00:51:30;;;;;;;1.35;0.73;;;18.40;42.60;;;;;;4053196;29;20035;-46
2022/11/02 00:53:52;;;;;;;1.00;0.45;;;18.40;42.70;;;;;;4055498;29;20885;-49
2022/11/02 00:56:15;;;;;;;1.00;0.40;;;18.40;42.70;;;;;;4058323;29;20028;-48
2022/11/02 00:58:37;;;;;;;0.50;0.50;;;18.40;42.70;;;;;;4056476;29;21072;-48
2022/11/02 01:01:05;;;;;;;1.33;0.55;;;18.40;42.80;;;;;;4057312;29;20037;-47
2022/11/02 01:03:29;;;;;;;2.70;0.70;;;18.40;42.90;;;;;;4056903;29;20126;-51
2022/11/02 01:05:51;;;;;;;0.52;0.45;;;18.40;42.90;;;;;;4056871;29;20572;-52
2022/11/02 01:08:14;;;;;;;1.85;0.90;;;18.40;42.90;;;;;;4055168;29;20099;-47
2022/11/02 01:10:36;;;;;;;0.40;0.40;;;18.40;43.00;;;;;;4059225;29;20508;-53
2022/11/02 01:12:59;;;;;;;1.48;0.70;;;18.40;43.00;;;;;;4058192;29;20119;-51
2022/11/02 01:15:22;;;;;;;0.75;0.40;;;18.50;42.90;;;;;;4058078;29;20055;-47
2022/11/02 01:17:45;;;;;;;1.35;0.80;;;18.50;43.00;;;;;;4056744;29;20032;-47
2022/11/02 01:20:08;;;;;;;0.45;0.45;;;18.50;43.30;;;;;;4058124;29;20051;-49
2022/11/02 01:22:31;;;;;;;4.28;1.17;;;18.50;43.10;;;;;;4056162;29;20467;-49
2022/11/02 01:24:54;;;;;;;5.03;1.55;;;18.50;43.10;;;;;;4056884;29;20040;-49
2022/11/02 01:27:16;;;;;;;3.13;1.10;;;18.50;43.10;;;;;;4056819;29;20044;-46
2022/11/02 01:29:39;;;;;;;1.98;0.90;;;18.50;43.20;;;;;;4055631;29;20040;-49
2022/11/02 01:32:01;;;;;;;3.75;1.00;;;18.50;43.20;;;;;;4053385;29;20041;-49
2022/11/02 01:34:24;;;;;;;3.33;0.80;;;18.50;43.20;;;;;;4055623;29;20043;-45
2022/11/02 01:36:47;;;;;;;3.97;1.00;;;18.50;43.20;;;;;;4053525;29;20563;-46
2022/11/02 01:39:10;;;;;;;2.73;1.07;;;18.50;43.20;;;;;;4052491;29;20456;-47
2022/11/02 01:41:32;;;;;;;3.67;1.33;;;18.60;43.20;;;;;;4055930;29;20861;-49
2022/11/02 01:44:00;;;;;;;3.42;1.35;;;18.60;43.20;;;;;;4055488;29;20058;-49
2022/11/02 01:46:44;;;;;;;4.93;1.67;;;18.60;43.10;;;;;;4054786;29;20123;-46
2022/11/02 01:49:11;;;;;;;3.97;2.10;;;18.60;43.10;;;;;;4055548;29;20063;-49
2022/11/02 01:51:42;;;;;;;9.13;3.13;;;18.70;43.10;;;;;;4053493;29;20052;-49
2022/11/02 01:54:19;;;;;;;10.02;3.28;;;18.70;43.10;;;;;;4051631;29;20040;-47
2022/11/02 01:56:46;;;;;;;8.77;3.80;;;18.60;42.90;;;;;;4054232;29;20131;-49
2022/11/02 01:59:16;;;;;;;6.20;3.42;;;18.70;42.80;;;;;;4057573;29;20036;-51
2022/11/02 02:01:39;;;;;;;6.20;3.22;;;18.70;42.80;;;;;;4051788;29;20072;-48
2022/11/02 02:04:02;;;;;;;6.32;3.35;;;18.70;42.80;;;;;;4055933;29;20052;-50
2022/11/02 02:06:25;;;;;;;6.73;3.50;;;18.70;42.90;;;;;;4053072;29;20411;-46
2022/11/02 02:08:50;;;;;;;5.85;2.88;;;18.70;42.70;;;;;;4051621;29;20345;-47
2022/11/02 02:11:26;;;;;;;6.45;2.70;;;18.70;42.70;;;;;;4055581;29;20044;-46
2022/11/02 02:13:49;;;;;;;6.05;2.60;;;18.70;42.80;;;;;;4057597;29;20091;-48
2022/11/02 02:16:34;;;;;;;5.57;2.10;;;18.70;42.60;;;;;;4055110;29;20515;-48
2022/11/02 02:19:00;;;;;;;4.85;2.40;;;18.70;42.50;;;;;;4057041;29;20036;-51
2022/11/02 02:21:51;;;;;;;13.32;2.38;;;18.70;42.50;;;;;;4056337;29;20039;-47
2022/11/02 02:24:55;;;;;;;3.40;2.03;;;18.70;42.40;;;;;;4044559;29;20427;-45
2022/11/02 02:27:28;;;;;;;4.75;2.10;;;18.80;42.00;;;;;;4058279;29;20595;-47
2022/11/02 02:30:05;;;;;;;5.00;2.05;;;18.80;42.10;;;;;;4059026;29;20115;-45
2022/11/02 02:32:39;;;;;;;2.72;1.73;;;18.80;42.00;;;;;;4054905;29;20619;-47
2022/11/02 02:35:19;;;;;;;;;;;18.80;41.80;;;;;;4055091;29;20040;-51
2022/11/02 02:37:56;;;;;;;3.70;1.60;;;18.80;41.70;;;;;;4061191;28;19923;-49
2022/11/02 02:40:38;;;;;;;2.40;1.40;;;18.80;41.70;;;;;;4058201;29;20044;-46
2022/11/02 02:43:29;;;;;;;3.33;1.20;;;18.90;41.90;;;;;;4055516;29;20609;-46
2022/11/02 02:45:54;;;;;;;3.35;1.23;;;18.80;41.60;;;;;;4057345;29;20060;-50
2022/11/02 02:48:21;;;;;;;2.20;0.90;;;18.80;41.50;;;;;;4059414;29;20036;-50
2022/11/02 02:50:47;;;;;;;2.30;1.10;;;18.90;41.50;;;;;;4056611;29;20040;-49
2022/11/02 02:53:11;;;;;;;1.15;0.82;;;18.90;41.60;;;;;;4057033;29;20032;-46
2022/11/02 02:55:42;;;;;;;3.20;1.20;;;18.90;41.60;;;;;;4059742;29;20614;-49
2022/11/02 02:58:09;;;;;;;2.78;0.88;;;18.90;41.20;;;;;;4059404;29;20032;-50
2022/11/02 03:00:35;;;;;;;2.00;0.90;;;18.90;41.40;;;;;;4059070;29;20052;-50
2022/11/02 03:03:02;;;;;;;2.30;1.13;;;18.90;41.50;;;;;;4055331;29;20685;-48
2022/11/02 03:05:34;;;;;;;2.15;1.00;;;18.90;41.40;;;;;;4057203;29;20090;-47
2022/11/02 03:08:00;;;;;;;1.85;0.70;;;18.90;41.40;;;;;;4060517;29;20048;-51
2022/11/02 03:10:52;;;;;;;0.98;0.60;;;18.90;41.40;;;;;;4056141;29;20123;-51
2022/11/02 03:13:38;;;;;;;1.15;0.80;;;18.90;41.40;;;;;;4054112;29;20456;-51
2022/11/02 03:16:25;;;;;;;1.92;0.50;;;19.00;41.20;;;;;;4059024;29;20050;-50
2022/11/02 03:18:57;;;;;;;0.73;0.63;;;19.00;41.30;;;;;;4059898;29;20610;-50
2022/11/02 03:21:40;;;;;;;1.08;0.80;;;19.00;41.20;;;;;;4052008;29;20156;-49
2022/11/02 03:24:33;;;;;;;0.30;0.30;;;19.00;41.30;;;;;;4057041;29;20096;-48
2022/11/02 03:27:20;;;;;;;0.60;0.60;;;19.00;41.20;;;;;;4057578;29;20545;-48
2022/11/02 03:30:03;;;;;;;2.22;0.82;;;19.00;41.20;;;;;;4058074;29;20098;-47
2022/11/02 03:32:55;;;;;;;0.98;0.57;;;19.00;41.10;;;;;;4054107;29;20083;-50
2022/11/02 03:36:02;;;;;;;1.58;0.80;;;19.10;41.10;;;;;;4055079;29;20484;-48
2022/11/02 03:38:48;;;;;;;0.95;0.60;;;19.10;40.90;;;;;;4055668;29;20172;-49
2022/11/02 03:41:12;;;;;;;1.02;0.70;;;19.10;40.80;;;;;;4057432;29;20036;-50
2022/11/02 03:43:35;;;;;;;;;;;19.10;40.90;;;;;;4060136;28;20086;-47
2022/11/02 03:46:01;;;;;;;0.60;0.50;;;19.10;40.80;;;;;;4057676;29;20358;-47
2022/11/02 03:48:30;;;;;;;0.75;0.60;;;19.20;40.80;;;;;;4056404;29;20071;-45
2022/11/02 03:50:54;;;;;;;1.02;0.43;;;19.20;40.70;;;;;;4060242;29;20083;-46
2022/11/02 03:53:19;;;;;;;1.77;0.80;;;19.20;40.60;;;;;;4056366;29;20420;-48
2022/11/02 03:56:03;;;;;;;2.53;0.50;;;19.20;40.50;;;;;;4057139;29;20063;-47
2022/11/02 03:58:26;;;;;;;0.55;0.55;;;19.30;40.50;;;;;;4056548;29;20039;-51
2022/11/02 04:00:55;;;;;;;0.90;0.50;;;19.30;40.30;;;;;;4058005;29;20040;-50
2022/11/02 04:03:18;;;;;;;1.05;0.52;;;19.30;40.30;;;;;;4055066;29;20068;-47
2022/11/02 04:05:41;;;;;;;1.52;0.70;;;19.40;40.30;;;;;;4058946;29;20052;-49
2022/11/02 04:08:23;;;;;;;3.63;1.08;;;19.40;40.20;;;;;;4057094;29;20036;-46
2022/11/02 04:16:15;;;;;;;1.10;0.70;;;19.50;40.60;;;;;;4043934;29;20582;-46
2022/11/02 04:21:18;;;;;;;1.02;0.57;;;19.60;39.80;;;;;;4057646;29;20052;-48
2022/11/02 04:26:22;;;;;;;1.10;0.60;;;19.70;39.80;;;;;;4058160;29;20043;-50
2022/11/02 04:28:45;;;;;;;0.50;0.32;;;19.80;39.90;;;;;;4053481;29;20044;-47
2022/11/02 04:31:07;;;;;;;0.60;0.47;;;19.80;39.80;;;;;;4059570;29;20040;-49
2022/11/02 04:33:33;;;;;;;0.40;0.40;;;19.90;39.80;;;;;;4057243;29;20420;-51
2022/11/02 04:35:55;;;;;;;0.38;0.38;;;19.90;39.80;;;;;;4057985;29;20032;-48
2022/11/02 04:43:40;;;;;;;1.10;0.40;;;20.10;39.80;;;;;;4058337;29;20060;-53
2022/11/02 04:46:03;;;;;;;1.02;0.40;;;20.10;39.90;;;;;;4057099;29;20052;-51
2022/11/02 04:48:25;;;;;;;2.28;0.38;;;20.20;39.80;;;;;;4055578;29;20067;-51
2022/11/02 04:50:48;;;;;;;0.40;0.40;;;20.20;39.90;;;;;;4059089;29;20036;-50
2022/11/02 04:53:10;;;;;;;1.58;0.85;;;20.20;39.80;;;;;;4051757;29;20571;-51
2022/11/02 04:55:33;;;;;;;1.63;0.40;;;20.30;39.70;;;;;;4054661;29;20047;-49
2022/11/02 04:57:56;;;;;;;2.33;0.50;;;20.30;39.70;;;;;;4056977;29;20059;-48
2022/11/02 05:00:20;;;;;;;0.50;0.50;;;20.30;39.70;;;;;;4053532;29;20040;-51
2022/11/02 05:02:45;;;;;;;2.83;0.73;;;20.40;39.80;;;;;;4053400;29;20095;-51
2022/11/02 05:05:08;;;;;;;0.98;0.50;;;20.40;39.60;;;;;;4051312;29;20055;-50
2022/11/02 05:07:30;;;;;;;1.25;0.60;;;20.50;39.60;;;;;;4058501;29;20036;-49
2022/11/02 05:09:53;;;;;;;1.17;0.70;;;20.60;39.60;;;;;;4058686;29;20050;-45
2022/11/02 05:12:15;;;;;;;0.40;0.40;;;20.60;39.60;;;;;;4056916;29;20044;-49
2022/11/02 05:14:38;;;;;;;0.55;0.40;;;20.60;39.50;;;;;;4055264;29;20044;-50
2022/11/02 05:17:01;;;;;;;0.73;0.45;;;20.70;39.60;;;;;;4058801;28;20036;-49
2022/11/02 05:19:23;;;;;;;0.57;0.38;;;20.70;39.50;;;;;;4054852;29;20048;-52
2022/11/02 05:21:46;;;;;;;0.30;0.30;;;20.70;39.50;;;;;;4056383;29;20127;-52
2022/11/02 05:24:08;;;;;;;0.70;0.40;;;20.80;39.40;;;;;;4056455;29;20134;-50
2022/11/02 05:26:31;;;;;;;0.68;0.50;;;20.80;39.50;;;;;;4058072;29;20052;-50
2022/11/02 05:28:53;;;;;;;0.57;0.43;;;20.90;39.50;;;;;;4055450;29;20047;-51
2022/11/02 05:31:16;;;;;;;1.88;0.40;;;20.90;39.40;;;;;;4058658;29;20127;-50
2022/11/02 05:33:38;;;;;;;0.32;0.32;;;21.00;39.40;;;;;;4056342;29;20040;-45
2022/11/02 05:36:01;;;;;;;0.98;0.43;;;21.00;39.30;;;;;;4058012;29;20044;-48
2022/11/02 05:38:24;;;;;;;0.50;0.50;;;21.00;39.30;;;;;;4056240;29;20032;-50
2022/11/02 05:40:52;;;;;;;0.65;0.40;;;21.00;39.30;;;;;;4057971;29;20424;-50
2022/11/02 05:43:15;;;;;;;0.77;0.50;;;21.10;39.30;;;;;;4052575;29;20044;-49
2022/11/02 05:45:38;;;;;;;0.40;0.40;;;21.10;39.10;;;;;;4053899;29;20055;-52
2022/11/02 05:48:01;;;;;;;0.65;0.32;;;21.20;39.00;;;;;;4058516;29;20036;-51
2022/11/02 05:50:24;;;;;;;1.02;0.50;;;21.20;39.00;;;;;;4055310;29;20068;-51
2022/11/02 05:52:47;;;;;;;3.17;0.60;;;21.30;39.00;;;;;;4057169;29;20040;-46
2022/11/02 05:55:13;;;;;;;2.20;0.65;;;21.30;38.90;;;;;;4060603;29;20552;-52
2022/11/02 05:57:35;;;;;;;0.70;0.43;;;21.30;38.80;;;;;;4057606;29;20730;-47
2022/11/02 05:59:58;;;;;;;0.60;0.40;;;21.30;38.70;;;;;;4057409;29;20416;-51
2022/11/02 06:02:21;;;;;;;1.10;0.50;;;21.30;38.60;;;;;;4061181;29;20048;-46
2022/11/02 06:04:46;;;;;;;3.42;0.70;;;21.30;38.60;;;;;;4058629;29;20082;-46
2022/11/02 06:07:08;;;;;;;1.65;0.57;;;21.30;38.40;;;;;;4059735;29;20040;-46
2022/11/02 06:09:31;;;;;;;1.55;0.63;;;21.40;38.30;;;;;;4060860;29;20071;-51
2022/11/02 06:11:55;;;;;;;0.75;0.32;;;21.40;38.10;;;;;;4057940;29;20051;-49
2022/11/02 06:14:17;;;;;;;0.88;0.50;;;21.40;38.20;;;;;;4059416;29;20510;-46
2022/11/02 06:16:40;;;;;;;0.45;0.32;;;21.40;38.00;;;;;;4055847;29;20040;-45
2022/11/02 06:19:02;;;;;;;0.65;0.45;;;21.40;38.10;;;;;;4052947;29;20055;-49
2022/11/02 06:21:25;;;;;;;0.40;0.30;;;21.50;38.10;;;;;;4053240;29;20553;-45
2022/11/02 06:23:48;;;;;;;0.77;0.40;;;21.50;38.00;;;;;;4054318;29;20048;-49
2022/11/02 06:26:11;;;;;;;1.03;0.57;;;21.50;38.00;;;;;;4053118;29;20087;-46
2022/11/02 06:28:34;;;;;;;0.65;0.40;;;21.50;38.40;;;;;;4051625;29;20119;-50
2022/11/02 06:30:57;;;;;;;0.45;0.30;;;21.50;37.90;;;;;;4049329;29;20041;-45
2022/11/02 06:33:20;;;;;;;0.63;0.50;;;21.50;38.00;;;;;;4053265;29;20568;-48
2022/11/02 06:35:48;;;;;;;0.30;0.30;;;21.50;38.00;;;;;;4053793;29;20517;-51
2022/11/02 06:38:10;;;;;;;0.43;0.40;;;21.50;37.90;;;;;;4055867;29;20551;-46
2022/11/02 06:40:33;;;;;;;0.43;0.43;;;21.60;38.10;;;;;;4052087;29;20044;-49
2022/11/02 06:42:57;;;;;;;1.23;0.40;;;21.50;38.00;;;;;;4055425;29;20043;-52
2022/11/02 06:45:19;;;;;;;0.30;0.30;;;21.50;38.00;;;;;;4052815;29;20052;-47
2022/11/02 06:47:42;;;;;;;1.65;0.45;;;21.50;38.00;;;;;;4054820;29;20056;-48
2022/11/02 06:50:05;;;;;;;0.70;0.38;;;21.50;38.10;;;;;;4053971;29;20135;-52
2022/11/02 06:52:29;;;;;;;0.98;0.30;;;21.50;38.00;;;;;;4052059;29;20150;-50
2022/11/02 06:54:52;;;;;;;0.38;0.32;;;21.50;38.50;;;;;;4051912;29;20200;-49
2022/11/02 06:57:14;;;;;;;0.63;0.50;;;21.50;37.90;;;;;;4049720;29;20056;-47
2022/11/02 06:59:37;;;;;;;0.30;0.30;;;21.50;37.90;;;;;;4048613;29;20519;-46
2022/11/02 07:01:59;;;;;;;1.00;0.50;;;21.50;38.00;;;;;;4053785;29;20519;-47
2022/11/02 07:04:22;;;;;;;0.40;0.38;;;21.50;38.10;;;;;;4045548;29;20140;-48
2022/11/02 07:06:44;;;;;;;0.40;0.40;;;21.50;38.30;;;;;;4055280;29;20032;-47
2022/11/02 07:09:07;;;;;;;0.50;0.43;;;21.40;38.10;;;;;;4055825;29;20052;-44
2022/11/02 07:11:29;;;;;;;1.38;0.50;;;21.40;38.10;;;;;;4054552;29;20051;-46
2022/11/02 07:13:52;;;;;;;0.70;0.52;;;21.40;38.10;;;;;;4055596;29;20044;-48
2022/11/02 07:16:15;;;;;;;0.55;0.40;;;21.40;38.20;;;;;;4056260;29;20051;-48
2022/11/02 07:18:37;;;;;;;0.30;0.30;;;21.40;38.30;;;;;;4051837;29;20151;-50
2022/11/02 07:21:01;;;;;;;0.70;0.47;;;21.30;38.40;;;;;;4051580;29;20128;-50
2022/11/02 07:23:23;;;;;;;0.52;0.40;;;21.30;38.30;;;;;;4053468;29;20048;-46
2022/11/02 07:25:46;;;;;;;0.30;0.30;;;21.30;38.40;;;;;;4053213;29;20111;-49
2022/11/02 07:28:09;;;;;;;0.70;0.50;;;21.30;38.50;;;;;;4051276;29;20032;-50
2022/11/02 07:30:33;;;;;;;0.88;0.40;;;21.30;38.50;;;;;;4046127;29;20096;-51
2022/11/02 07:32:55;;;;;;;0.63;0.50;;;21.30;38.50;;;;;;4054063;29;20032;-47
2022/11/02 07:35:18;;;;;;;0.55;0.30;;;21.20;39.30;;;;;;4058440;29;20099;-48
2022/11/02 07:37:41;;;;;;;0.85;0.45;;;21.20;38.70;;;;;;4059166;29;20055;-48
2022/11/02 07:40:05;;;;;;;1.50;0.70;;;21.20;38.70;;;;;;4058646;29;20040;-52
2022/11/02 07:42:27;;;;;;;;;;;21.20;38.70;;;;;;4059086;29;20114;-52
2022/11/02 07:44:50;;;;;;;0.98;0.50;;;21.10;38.70;;;;;;4059154;29;19969;-47
2022/11/02 07:47:12;;;;;;;0.38;0.38;;;21.10;38.70;;;;;;4056742;29;20093;-48
2022/11/02 07:49:35;;;;;;;0.60;0.32;;;21.10;38.80;;;;;;4058053;29;20413;-50
2022/11/02 07:51:57;;;;;;;0.40;0.40;;;21.10;38.80;;;;;;4056432;29;20035;-50
2022/11/02 07:54:20;;;;;;;1.40;0.50;;;21.00;38.70;;;;;;4058538;29;20449;-46
2022/11/02 07:56:44;;;;;;;0.50;0.50;;;21.00;38.80;;;;;;4052104;29;20535;-46
2022/11/02 07:59:09;;;;;;;0.80;0.40;;;21.00;38.90;;;;;;4057768;29;20099;-47
2022/11/02 08:01:31;;;;;;;0.95;0.40;;;21.00;38.90;;;;;;4057463;29;20036;-47
2022/11/02 08:03:55;;;;;;;0.52;0.40;;;20.90;38.90;;;;;;4053630;29;20143;-49
2022/11/02 08:06:17;;;;;;;1.38;0.50;;;20.90;38.80;;;;;;4048901;29;20056;-44
2022/11/02 08:08:40;;;;;;;0.88;0.50;;;20.90;38.80;;;;;;4051860;29;20098;-50
2022/11/02 08:11:08;;;;;;;0.40;0.40;;;20.90;38.90;;;;;;4050417;29;20099;-48
2022/11/02 08:13:30;;;;;;;0.65;0.35;;;20.80;38.80;;;;;;4049027;29;20043;-50
2022/11/02 08:15:54;;;;;;;2.42;0.50;;;20.80;38.90;;;;;;4052644;29;20400;-50
2022/11/02 08:18:27;;;;;;;0.43;0.35;;;20.80;39.00;;;;;;4051808;29;20400;-47
2022/11/02 08:20:51;;;;;;;0.87;0.47;;;20.80;39.00;;;;;;4051039;29;20043;-48
2022/11/02 08:23:15;;;;;;;0.50;0.50;;;20.80;39.10;;;;;;4049109;29;20477;-46
2022/11/02 08:25:39;;;;;;;2.33;1.13;;;20.80;39.10;;;;;;4048646;29;20048;-46
2022/11/02 08:28:02;;;;;;;0.47;0.47;;;20.80;39.10;;;;;;4051565;29;20491;-49
2022/11/02 08:30:29;;;;;;;0.75;0.55;;;20.80;39.10;;;;;;4051937;29;20070;-47
2022/11/02 08:32:52;;;;;;;1.08;0.57;;;20.70;39.10;;;;;;4051446;29;20040;-49
2022/11/02 08:35:15;;;;;;;0.80;0.52;;;20.70;39.10;;;;;;4051771;29;20444;-46
2022/11/02 08:37:37;;;;;;;1.58;0.50;;;20.70;39.20;;;;;;4052302;29;20036;-45
2022/11/02 08:40:00;;;;;;;0.70;0.47;;;20.70;39.20;;;;;;4052536;29;20169;-50
2022/11/02 08:42:22;;;;;;;1.00;0.47;;;20.70;39.30;;;;;;4047754;29;20048;-46
2022/11/02 08:44:45;;;;;;;0.35;0.35;;;20.60;39.40;;;;;;4054379;29;20058;-46
2022/11/02 08:47:07;;;;;;;0.35;0.30;;;20.60;39.40;;;;;;4051066;29;20420;-46
2022/11/02 08:49:30;;;;;;;0.88;0.60;;;20.60;39.50;;;;;;4053292;29;20262;-47
2022/11/02 08:51:52;;;;;;;0.70;0.32;;;20.60;39.50;;;;;;4054080;29;20480;-48
2022/11/02 08:54:15;;;;;;;0.80;0.40;;;20.60;39.50;;;;;;4050154;29;20044;-48
2022/11/02 08:59:58;;;;;;;0.38;0.38;;;20.50;39.40;;;;;;4051725;29;20108;-49
2022/11/02 09:02:21;;;;;;;0.95;0.30;;;20.50;39.50;;;;;;4054024;29;20131;-47
2022/11/02 09:04:43;;;;;;;0.60;0.40;;;20.50;40.20;;;;;;4048036;29;20055;-46
2022/11/02 09:07:06;;;;;;;1.70;0.65;;;20.50;39.60;;;;;;4051359;29;20044;-48
2022/11/02 09:09:28;;;;;;;0.30;0.30;;;20.50;39.60;;;;;;4051903;29;20036;-46
2022/11/02 09:11:51;;;;;;;0.65;0.40;;;20.50;39.70;;;;;;4046490;29;20055;-47
2022/11/02 09:14:14;;;;;;;0.52;0.43;;;20.50;39.70;;;;;;4050948;29;20521;-51
2022/11/02 09:16:36;;;;;;;0.50;0.40;;;20.40;39.70;;;;;;4050502;29;20032;-48
2022/11/02 09:18:59;;;;;;;3.00;0.50;;;20.50;39.70;;;;;;4049510;29;20044;-46
2022/11/02 09:21:21;;;;;;;4.25;0.93;;;20.40;39.90;;;;;;4048901;29;20515;-44
2022/11/02 09:23:47;;;;;;;2.15;0.60;;;20.40;40.10;;;;;;4047262;29;20099;-47
2022/11/02 09:26:09;;;;;;;7.22;0.50;;;20.40;40.50;;;;;;4045228;29;20123;-50
2022/11/02 09:28:32;;;;;;;2.78;0.40;;;20.40;40.80;;;;;;4045858;29;20052;-46
2022/11/02 09:31:07;;;;;;;0.85;0.43;;;20.40;41.10;;;;;;4048084;29;20039;-46
2022/11/02 09:33:31;;;;;;;1.35;0.50;;;20.40;41.00;;;;;;4052961;29;20442;-46
2022/11/02 09:35:53;;;;;;;2.00;0.52;;;20.40;41.50;;;;;;4048100;29;20040;-43
2022/11/02 09:38:17;;;;;;;15.27;0.80;;;20.40;41.70;;;;;;4050780;29;20368;-44
2022/11/02 09:41:08;;;;;;;1.38;0.40;;;20.40;42.20;;;;;;4048941;29;20036;-45
2022/11/02 09:43:54;;;;;;;1.60;0.50;;;20.40;42.20;;;;;;4046348;29;20377;-44
2022/11/02 09:46:23;;;;;;;7.60;0.73;;;20.50;42.20;;;;;;4050919;29;20079;-49
2022/11/02 09:48:59;;;;;;;1.20;0.40;;;20.50;42.40;;;;;;4043474;29;21057;-46
2022/11/02 09:51:24;;;;;;;2.22;0.50;;;20.40;42.40;;;;;;4047604;29;20126;-49
2022/11/02 09:54:11;;;;;;;1.75;0.77;;;20.50;42.50;;;;;;4049574;29;20488;-45
2022/11/02 09:56:34;;;;;;;0.63;0.47;;;20.50;42.40;;;;;;4049467;29;20040;-44
2022/11/02 09:59:02;;;;;;;0.95;0.55;;;20.40;42.50;;;;;;4047012;29;20236;-48
2022/11/02 10:01:45;;;;;;;0.45;0.45;;;20.40;42.60;;;;;;4045072;29;20040;-48
2022/11/02 10:04:29;;;;;;;5.15;0.80;;;20.50;42.80;;;;;;4046642;29;20060;-47
2022/11/02 10:07:02;;;;;;;4.18;1.02;;;20.50;42.90;;;;;;4047456;29;20841;-47
2022/11/02 10:10:06;;;;;;;3.05;0.60;;;20.50;43.00;;;;;;4049268;29;20055;-46
2022/11/02 10:12:42;;;;;;;5.93;0.93;;;20.50;43.10;;;;;;4049356;29;20284;-43
2022/11/02 10:15:16;;;;;;;3.03;0.40;;;20.50;43.00;;;;;;4046160;29;20041;-44
2022/11/02 10:17:40;;;;;;;2.40;0.63;;;20.50;43.00;;;;;;4047975;29;20048;-45
2022/11/02 10:20:17;;;;;;;2.80;0.77;;;20.50;43.00;;;;;;4047633;29;20196;-45
2022/11/02 10:22:40;;;;;;;1.88;0.60;;;20.50;43.00;;;;;;4049971;29;20036;-45
2022/11/02 10:25:11;;;;;;;3.72;0.57;;;20.50;43.20;;;;;;4049220;29;20044;-46
2022/11/02 10:27:37;;;;;;;1.67;0.70;;;20.50;43.20;;;;;;4051369;29;20437;-45
2022/11/02 10:30:20;;;;;;;1.27;0.30;;;20.50;43.40;;;;;;4052733;29;20119;-49
2022/11/02 10:32:44;;;;;;;2.53;0.65;;;20.50;43.30;;;;;;4053134;29;20439;-51
2022/11/02 10:35:18;;;;;;;6.07;0.65;;;20.50;43.30;;;;;;4054010;29;20388;-50
2022/11/02 10:37:44;;;;;;;1.95;0.50;;;20.50;43.20;;;;;;4055340;29;20120;-46
2022/11/02 10:40:09;;;;;;;2.47;0.60;;;20.50;43.30;;;;;;4053029;29;20052;-51
2022/11/02 10:42:51;;;;;;;0.70;0.57;;;20.50;43.20;;;;;;4056647;29;20123;-50
2022/11/02 10:45:17;;;;;;;0.30;0.30;;;20.50;43.20;;;;;;4056264;29;20467;-46
2022/11/02 10:48:03;;;;;;;1.98;0.40;;;20.50;43.30;;;;;;4055345;29;20051;-47
2022/11/02 10:50:40;;;;;;;0.80;0.47;;;20.50;43.20;;;;;;4047819;29;20040;-50
2022/11/02 10:53:04;;;;;;;1.02;0.40;;;20.50;43.20;;;;;;4052697;29;20036;-48
2022/11/02 10:55:59;;;;;;;1.98;0.60;;;20.50;43.20;;;;;;4053515;29;20043;-46
2022/11/02 10:58:23;;;;;;;0.70;0.40;;;20.40;43.20;;;;;;4050002;29;20528;-47
2022/11/02 11:00:46;;;;;;;0.45;0.43;;;20.40;43.20;;;;;;4043708;29;20044;-45
2022/11/02 11:03:15;;;;;;;0.65;0.43;;;20.40;43.30;;;;;;4054814;29;20047;-46
2022/11/02 11:05:50;;;;;;;0.40;0.30;;;20.40;43.20;;;;;;4057353;29;20087;-49
2022/11/02 11:08:31;;;;;;;0.50;0.40;;;20.40;43.10;;;;;;4052645;29;20195;-44
2022/11/02 11:10:53;;;;;;;4.53;0.60;;;20.40;43.30;;;;;;4053812;29;20040;-47
2022/11/02 11:13:22;;;;;;;1.15;0.60;;;20.40;43.50;;;;;;4053192;29;20087;-47
2022/11/02 11:15:51;;;;;;;3.85;0.65;;;20.40;43.60;;;;;;4052837;29;20114;-47
2022/11/02 11:18:17;;;;;;;9.25;1.13;;;20.40;43.70;;;;;;4054801;29;20040;-45
2022/11/02 11:20:41;;;;;;;5.63;0.95;;;20.40;43.60;;;;;;4047142;29;20040;-44
2022/11/02 11:23:25;;;;;;;3.85;0.80;;;20.40;43.60;;;;;;4053400;29;20119;-46
2022/11/02 11:26:24;;;;;;;3.35;0.63;;;20.40;43.60;;;;;;4049450;29;20056;-47
2022/11/02 11:28:55;;;;;;;1.75;0.38;;;20.40;43.60;;;;;;4047895;29;20192;-48
2022/11/02 11:31:18;;;;;;;3.00;0.68;;;20.40;43.70;;;;;;4056296;29;20130;-50
2022/11/02 11:33:48;;;;;;;1.17;0.60;;;20.40;43.60;;;;;;4052471;29;20036;-46
2022/11/02 11:36:20;;;;;;;2.28;0.65;;;20.30;43.60;;;;;;4052333;29;20104;-45
2022/11/02 11:38:48;;;;;;;1.45;0.35;;;20.30;43.50;;;;;;4051324;29;20249;-48
2022/11/02 11:41:11;;;;;;;3.40;0.77;;;20.30;43.50;;;;;;4052568;29;20043;-47
2022/11/02 11:43:37;;;;;;;0.95;0.68;;;20.30;43.50;;;;;;4058342;29;20046;-44
2022/11/02 11:46:02;;;;;;;1.35;0.60;;;20.30;43.60;;;;;;4052519;29;20115;-46
2022/11/02 11:48:36;;;;;;;1.27;0.40;;;20.30;43.60;;;;;;4054122;29;20036;-45
2022/11/02 11:51:00;;;;;;;0.85;0.40;;;20.30;43.70;;;;;;4052955;29;20536;-48
2022/11/02 11:53:23;;;;;;;1.55;0.50;;;20.30;43.70;;;;;;4055470;29;20123;-47
2022/11/02 11:55:54;;;;;;;1.58;0.45;;;20.30;43.70;;;;;;4053877;29;20040;-46
2022/11/02 11:58:23;;;;;;;1.55;0.60;;;20.30;43.70;;;;;;4050049;29;20036;-47
2022/11/02 12:01:00;;;;;;;3.40;0.70;;;20.30;43.70;;;;;;4052629;29;20572;-48
2022/11/02 12:03:23;;;;;;;2.15;0.50;;;20.30;43.60;;;;;;4048673;29;20419;-47
2022/11/02 12:06:22;;;;;;;0.75;0.43;;;20.30;43.70;;;;;;4052525;29;20106;-46
2022/11/02 12:09:02;;;;;;;1.88;0.50;;;20.30;43.70;;;;;;4051126;29;20055;-48
2022/11/02 12:11:37;;;;;;;2.45;0.50;;;20.30;43.80;;;;;;4052973;29;20032;-43
2022/11/02 12:14:32;;;;;;;3.25;0.82;;;20.30;43.90;;;;;;4053454;29;20047;-44
2022/11/02 12:16:57;;;;;;;;;;;20.30;43.80;;;;;;4053993;29;20518;-43
2022/11/02 12:19:29;;;;;;;1.63;0.80;;;20.30;43.80;;;;;;4052869;29;19922;-47
2022/11/02 12:22:00;;;;;;;1.52;0.45;;;20.30;43.80;;;;;;4049209;29;20037;-44
2022/11/02 12:24:38;;;;;;;5.95;0.98;;;20.30;43.80;;;;;;4050208;29;20052;-43
2022/11/02 12:27:09;;;;;;;2.17;0.73;;;20.30;43.80;;;;;;4055834;29;20084;-44
2022/11/02 12:29:59;;;;;;;3.38;0.60;;;20.30;43.80;;;;;;4051003;29;20055;-47
2022/11/02 12:32:58;;;;;;;1.42;0.40;;;20.30;43.80;;;;;;4049051;29;20115;-47
2022/11/02 12:35:48;;;;;;;2.97;0.40;;;20.30;44.00;;;;;;4051507;29;20105;-46
2022/11/02 12:38:36;;;;;;;2.00;0.75;;;20.30;43.80;;;;;;4054698;29;20044;-45
2022/11/02 12:45:02;;;;;;;1.73;0.60;;;20.30;43.80;;;;;;4052316;29;20492;-44
2022/11/02 12:47:45;;;;;;;1.17;0.60;;;20.30;43.80;;;;;;4051659;29;20431;-43
2022/11/02 12:50:19;;;;;;;3.10;0.73;;;20.20;43.90;;;;;;4054912;29;20139;-44
2022/11/02 12:53:03;;;;;;;3.08;0.60;;;20.20;43.80;;;;;;4056728;29;20079;-45
2022/11/02 12:55:34;;;;;;;5.15;0.85;;;20.20;43.90;;;;;;4050371;29;20044;-45
2022/11/02 12:58:05;;;;;;;0.52;0.30;;;20.20;44.00;;;;;;4054375;29;20515;-46
2022/11/02 13:00:30;;;;;;;1.70;0.45;;;20.20;43.90;;;;;;4049197;29;20461;-45
2022/11/02 13:03:34;;;;;;;0.68;0.30;;;20.20;43.90;;;;;;4056258;29;20122;-44
2022/11/02 13:06:12;;;;;;;1.58;0.50;;;20.20;44.00;;;;;;4050910;29;20060;-45
2022/11/02 13:09:20;;;;;;;15.02;1.00;;;20.20;44.00;;;;;;4054000;29;20048;-48
2022/11/02 13:12:08;;;;;;;1.17;0.70;;;20.20;44.10;;;;;;4047932;29;20425;-50
2022/11/02 13:14:47;;;;;;;5.15;0.60;;;20.20;44.00;;;;;;4051395;29;20054;-45
2022/11/02 13:17:27;;;;;;;1.63;0.60;;;20.10;43.90;;;;;;4055003;29;20044;-46